Mount Airy, Georgia
Current Conditions -  °F | °C
As of 5:35 PM on Friday 31 Oct 2014 (Local Time) from KTOC Reporting Station
Broken Clouds Broken Clouds  
Wind Chill: 59°   Ceiling: 11000
Heat Index: 59°   Visibility: 10mi
Dew Point: 40°   Wind: 12mph
Humidity: 48%   Direction: 290°WNW
Pressure: 29.82"   Gusts: 16mph
Location:  34.52°N, 83.5°W
Report Text: KTOC 312135Z AUTO 29010G14KT 10SM SCT080 BKN110 15/04 A2982 RMK AO2 T01510042
Loading
Personal Weather Stations






























Interactive Weather Map
Tropical Storm Tracking
New forecast layout! Learn more

10-Day Weather Forecast

Advertisements
Track Severe Weather on mobile